sensor_id;sensor_type;location;lat;lon;timestamp;P1;durP1;ratioP1;P2;durP2;ratioP2
69854;SDS011;57146;48.140;16.304;2024-02-14T00:01:43;5.87;;;1.93;;
69854;SDS011;57146;48.140;16.304;2024-02-14T00:04:09;7.57;;;1.60;;
69854;SDS011;57146;48.140;16.304;2024-02-14T00:06:36;7.68;;;1.80;;
69854;SDS011;57146;48.140;16.304;2024-02-14T00:09:04;7.60;;;1.92;;
69854;SDS011;57146;48.140;16.304;2024-02-14T00:11:31;5.05;;;2.00;;
69854;SDS011;57146;48.140;16.304;2024-02-14T00:13:58;6.13;;;1.70;;
69854;SDS011;57146;48.140;16.304;2024-02-14T00:16:25;4.63;;;1.63;;
69854;SDS011;57146;48.140;16.304;2024-02-14T00:18:52;6.45;;;1.52;;
69854;SDS011;57146;48.140;16.304;2024-02-14T00:21:19;5.30;;;1.52;;
69854;SDS011;57146;48.140;16.304;2024-02-14T00:23:46;7.90;;;1.58;;
69854;SDS011;57146;48.140;16.304;2024-02-14T00:26:13;7.43;;;1.73;;
69854;SDS011;57146;48.140;16.304;2024-02-14T00:28:39;5.63;;;1.60;;
69854;SDS011;57146;48.140;16.304;2024-02-14T00:31:06;8.60;;;1.70;;
69854;SDS011;57146;48.140;16.304;2024-02-14T00:33:33;5.88;;;1.40;;
69854;SDS011;57146;48.140;16.304;2024-02-14T00:36:00;6.25;;;1.40;;
69854;SDS011;57146;48.140;16.304;2024-02-14T00:38:27;5.23;;;1.30;;
69854;SDS011;57146;48.140;16.304;2024-02-14T00:40:54;6.18;;;1.30;;
69854;SDS011;57146;48.140;16.304;2024-02-14T00:43:21;6.80;;;1.50;;
69854;SDS011;57146;48.140;16.304;2024-02-14T00:45:48;5.45;;;1.25;;
69854;SDS011;57146;48.140;16.304;2024-02-14T00:48:15;5.25;;;1.10;;
69854;SDS011;57146;48.140;16.304;2024-02-14T00:50:42;5.30;;;1.00;;
69854;SDS011;57146;48.140;16.304;2024-02-14T00:53:09;4.30;;;0.80;;
69854;SDS011;57146;48.140;16.304;2024-02-14T00:55:36;5.60;;;0.77;;
69854;SDS011;57146;48.140;16.304;2024-02-14T00:58:03;5.25;;;0.90;;
69854;SDS011;57146;48.140;16.304;2024-02-14T01:00:31;5.13;;;0.70;;
69854;SDS011;57146;48.140;16.304;2024-02-14T01:03:01;4.70;;;0.90;;
69854;SDS011;57146;48.140;16.304;2024-02-14T01:05:28;5.95;;;0.82;;
69854;SDS011;57146;48.140;16.304;2024-02-14T01:07:55;3.30;;;0.88;;
69854;SDS011;57146;48.140;16.304;2024-02-14T01:10:22;5.35;;;1.10;;
69854;SDS011;57146;48.140;16.304;2024-02-14T01:12:49;6.25;;;1.13;;
69854;SDS011;57146;48.140;16.304;2024-02-14T01:15:18;6.43;;;0.90;;
69854;SDS011;57146;48.140;16.304;2024-02-14T01:17:46;7.20;;;1.20;;
69854;SDS011;57146;48.140;16.304;2024-02-14T01:20:13;5.25;;;0.93;;
69854;SDS011;57146;48.140;16.304;2024-02-14T01:22:40;5.72;;;1.30;;
69854;SDS011;57146;48.140;16.304;2024-02-14T01:25:07;5.60;;;1.00;;
69854;SDS011;57146;48.140;16.304;2024-02-14T01:27:34;6.33;;;1.20;;
69854;SDS011;57146;48.140;16.304;2024-02-14T01:30:01;5.72;;;1.27;;
69854;SDS011;57146;48.140;16.304;2024-02-14T01:32:28;9.50;;;2.05;;
69854;SDS011;57146;48.140;16.304;2024-02-14T01:34:55;6.10;;;1.17;;
69854;SDS011;57146;48.140;16.304;2024-02-14T01:37:23;6.00;;;1.35;;
69854;SDS011;57146;48.140;16.304;2024-02-14T01:39:50;5.70;;;1.03;;
69854;SDS011;57146;48.140;16.304;2024-02-14T01:42:17;4.53;;;1.20;;
69854;SDS011;57146;48.140;16.304;2024-02-14T01:44:44;5.50;;;1.35;;
69854;SDS011;57146;48.140;16.304;2024-02-14T01:47:11;6.70;;;1.42;;
69854;SDS011;57146;48.140;16.304;2024-02-14T01:49:39;8.90;;;1.30;;
69854;SDS011;57146;48.140;16.304;2024-02-14T01:52:06;6.47;;;1.00;;
69854;SDS011;57146;48.140;16.304;2024-02-14T01:54:33;6.25;;;1.45;;
69854;SDS011;57146;48.140;16.304;2024-02-14T01:57:01;4.80;;;1.20;;
69854;SDS011;57146;48.140;16.304;2024-02-14T01:59:29;6.55;;;1.20;;
69854;SDS011;57146;48.140;16.304;2024-02-14T02:01:57;6.57;;;1.05;;
69854;SDS011;57146;48.140;16.304;2024-02-14T02:04:24;5.07;;;1.33;;
69854;SDS011;57146;48.140;16.304;2024-02-14T02:06:51;5.88;;;1.23;;
69854;SDS011;57146;48.140;16.304;2024-02-14T02:09:18;5.75;;;1.30;;
69854;SDS011;57146;48.140;16.304;2024-02-14T02:11:49;4.43;;;1.27;;
69854;SDS011;57146;48.140;16.304;2024-02-14T02:14:17;6.20;;;1.10;;
69854;SDS011;57146;48.140;16.304;2024-02-14T02:16:43;3.70;;;0.87;;
69854;SDS011;57146;48.140;16.304;2024-02-14T02:19:10;5.75;;;1.00;;
69854;SDS011;57146;48.140;16.304;2024-02-14T02:21:38;4.38;;;0.80;;
69854;SDS011;57146;48.140;16.304;2024-02-14T02:24:05;4.70;;;0.98;;
69854;SDS011;57146;48.140;16.304;2024-02-14T02:26:32;6.15;;;0.98;;
69854;SDS011;57146;48.140;16.304;2024-02-14T02:28:59;5.00;;;1.03;;
69854;SDS011;57146;48.140;16.304;2024-02-14T02:31:26;4.45;;;0.75;;
69854;SDS011;57146;48.140;16.304;2024-02-14T02:33:53;4.32;;;0.93;;
69854;SDS011;57146;48.140;16.304;2024-02-14T02:36:20;6.63;;;0.85;;
69854;SDS011;57146;48.140;16.304;2024-02-14T02:38:47;4.22;;;0.80;;
69854;SDS011;57146;48.140;16.304;2024-02-14T02:41:15;5.37;;;0.77;;
69854;SDS011;57146;48.140;16.304;2024-02-14T02:43:42;4.07;;;0.80;;
69854;SDS011;57146;48.140;16.304;2024-02-14T02:46:09;4.35;;;0.75;;
69854;SDS011;57146;48.140;16.304;2024-02-14T02:48:36;3.15;;;0.40;;
69854;SDS011;57146;48.140;16.304;2024-02-14T02:51:03;4.50;;;0.65;;
69854;SDS011;57146;48.140;16.304;2024-02-14T02:53:30;3.63;;;0.43;;
69854;SDS011;57146;48.140;16.304;2024-02-14T02:55:57;5.63;;;0.70;;
69854;SDS011;57146;48.140;16.304;2024-02-14T02:58:24;5.18;;;0.52;;
69854;SDS011;57146;48.140;16.304;2024-02-14T03:00:51;5.53;;;0.40;;
69854;SDS011;57146;48.140;16.304;2024-02-14T03:03:18;3.80;;;0.52;;
69854;SDS011;57146;48.140;16.304;2024-02-14T03:05:45;3.40;;;0.30;;
69854;SDS011;57146;48.140;16.304;2024-02-14T03:08:12;3.38;;;0.50;;
69854;SDS011;57146;48.140;16.304;2024-02-14T03:10:39;4.88;;;0.30;;
69854;SDS011;57146;48.140;16.304;2024-02-14T03:13:06;4.57;;;0.50;;
69854;SDS011;57146;48.140;16.304;2024-02-14T03:15:33;3.58;;;0.40;;
69854;SDS011;57146;48.140;16.304;2024-02-14T03:18:01;5.73;;;0.77;;
69854;SDS011;57146;48.140;16.304;2024-02-14T03:20:28;4.88;;;0.70;;
69854;SDS011;57146;48.140;16.304;2024-02-14T03:22:55;3.53;;;0.57;;
69854;SDS011;57146;48.140;16.304;2024-02-14T03:25:22;7.70;;;0.80;;
69854;SDS011;57146;48.140;16.304;2024-02-14T03:27:49;4.43;;;0.60;;
69854;SDS011;57146;48.140;16.304;2024-02-14T03:30:16;5.47;;;0.70;;
69854;SDS011;57146;48.140;16.304;2024-02-14T03:32:45;5.68;;;0.80;;
69854;SDS011;57146;48.140;16.304;2024-02-14T03:35:13;4.65;;;0.60;;
69854;SDS011;57146;48.140;16.304;2024-02-14T03:37:41;6.45;;;0.80;;
69854;SDS011;57146;48.140;16.304;2024-02-14T03:40:09;3.63;;;0.57;;
69854;SDS011;57146;48.140;16.304;2024-02-14T03:42:36;3.13;;;0.50;;
69854;SDS011;57146;48.140;16.304;2024-02-14T03:45:03;5.60;;;0.60;;
69854;SDS011;57146;48.140;16.304;2024-02-14T03:47:31;4.90;;;0.70;;
69854;SDS011;57146;48.140;16.304;2024-02-14T03:49:59;3.38;;;0.40;;
69854;SDS011;57146;48.140;16.304;2024-02-14T03:52:26;4.15;;;0.45;;
69854;SDS011;57146;48.140;16.304;2024-02-14T03:54:53;2.67;;;0.40;;
69854;SDS011;57146;48.140;16.304;2024-02-14T03:57:20;4.70;;;0.50;;
69854;SDS011;57146;48.140;16.304;2024-02-14T03:59:46;4.75;;;0.70;;
69854;SDS011;57146;48.140;16.304;2024-02-14T04:02:13;4.95;;;0.50;;
69854;SDS011;57146;48.140;16.304;2024-02-14T04:04:43;5.97;;;0.68;;
69854;SDS011;57146;48.140;16.304;2024-02-14T04:07:10;6.70;;;0.80;;
69854;SDS011;57146;48.140;16.304;2024-02-14T04:09:37;5.75;;;0.60;;
69854;SDS011;57146;48.140;16.304;2024-02-14T04:12:05;3.83;;;0.70;;
69854;SDS011;57146;48.140;16.304;2024-02-14T04:14:32;3.97;;;0.65;;
69854;SDS011;57146;48.140;16.304;2024-02-14T04:16:59;5.57;;;0.88;;
69854;SDS011;57146;48.140;16.304;2024-02-14T04:19:25;6.47;;;0.70;;
69854;SDS011;57146;48.140;16.304;2024-02-14T04:21:53;4.50;;;0.90;;
69854;SDS011;57146;48.140;16.304;2024-02-14T04:24:20;6.03;;;1.20;;
69854;SDS011;57146;48.140;16.304;2024-02-14T04:26:46;4.40;;;0.85;;
69854;SDS011;57146;48.140;16.304;2024-02-14T04:29:13;3.92;;;0.50;;
69854;SDS011;57146;48.140;16.304;2024-02-14T04:31:40;4.60;;;0.57;;
69854;SDS011;57146;48.140;16.304;2024-02-14T04:34:07;3.97;;;0.70;;
69854;SDS011;57146;48.140;16.304;2024-02-14T04:36:34;4.90;;;0.70;;
69854;SDS011;57146;48.140;16.304;2024-02-14T04:39:01;5.95;;;0.60;;
69854;SDS011;57146;48.140;16.304;2024-02-14T04:41:28;4.28;;;0.70;;
69854;SDS011;57146;48.140;16.304;2024-02-14T04:43:56;4.13;;;0.60;;
69854;SDS011;57146;48.140;16.304;2024-02-14T04:46:23;5.32;;;0.95;;
69854;SDS011;57146;48.140;16.304;2024-02-14T04:48:49;7.00;;;1.05;;
69854;SDS011;57146;48.140;16.304;2024-02-14T04:51:16;6.22;;;1.33;;
69854;SDS011;57146;48.140;16.304;2024-02-14T04:53:43;6.00;;;0.90;;
69854;SDS011;57146;48.140;16.304;2024-02-14T04:56:10;6.23;;;1.00;;
69854;SDS011;57146;48.140;16.304;2024-02-14T04:58:37;5.45;;;1.55;;
69854;SDS011;57146;48.140;16.304;2024-02-14T05:01:04;4.78;;;1.02;;
69854;SDS011;57146;48.140;16.304;2024-02-14T05:03:31;5.88;;;1.10;;
69854;SDS011;57146;48.140;16.304;2024-02-14T05:05:58;5.45;;;0.95;;
69854;SDS011;57146;48.140;16.304;2024-02-14T05:08:25;4.17;;;0.97;;
69854;SDS011;57146;48.140;16.304;2024-02-14T05:10:52;4.55;;;0.85;;
69854;SDS011;57146;48.140;16.304;2024-02-14T05:13:19;4.40;;;0.88;;
69854;SDS011;57146;48.140;16.304;2024-02-14T05:15:46;5.03;;;0.95;;
69854;SDS011;57146;48.140;16.304;2024-02-14T05:18:14;4.60;;;0.98;;
69854;SDS011;57146;48.140;16.304;2024-02-14T05:20:43;4.97;;;0.90;;
69854;SDS011;57146;48.140;16.304;2024-02-14T05:23:11;4.72;;;1.00;;
69854;SDS011;57146;48.140;16.304;2024-02-14T05:25:40;3.70;;;0.80;;
69854;SDS011;57146;48.140;16.304;2024-02-14T05:28:07;6.53;;;0.82;;
69854;SDS011;57146;48.140;16.304;2024-02-14T05:30:34;4.35;;;0.80;;
69854;SDS011;57146;48.140;16.304;2024-02-14T05:33:01;3.73;;;0.70;;
69854;SDS011;57146;48.140;16.304;2024-02-14T05:35:28;5.93;;;1.25;;
69854;SDS011;57146;48.140;16.304;2024-02-14T05:37:55;5.32;;;1.00;;
69854;SDS011;57146;48.140;16.304;2024-02-14T05:40:22;4.60;;;1.08;;
69854;SDS011;57146;48.140;16.304;2024-02-14T05:42:48;10.30;;;0.80;;
69854;SDS011;57146;48.140;16.304;2024-02-14T05:45:15;5.13;;;0.80;;
69854;SDS011;57146;48.140;16.304;2024-02-14T05:47:43;5.07;;;0.73;;
69854;SDS011;57146;48.140;16.304;2024-02-14T05:50:10;6.65;;;0.57;;
69854;SDS011;57146;48.140;16.304;2024-02-14T05:52:37;6.00;;;0.65;;
69854;SDS011;57146;48.140;16.304;2024-02-14T05:55:04;5.07;;;0.45;;
69854;SDS011;57146;48.140;16.304;2024-02-14T05:57:32;4.53;;;0.40;;
69854;SDS011;57146;48.140;16.304;2024-02-14T05:59:59;5.05;;;0.60;;
69854;SDS011;57146;48.140;16.304;2024-02-14T06:02:26;6.53;;;0.95;;
69854;SDS011;57146;48.140;16.304;2024-02-14T06:04:52;7.93;;;0.90;;
69854;SDS011;57146;48.140;16.304;2024-02-14T06:07:19;3.75;;;0.55;;
69854;SDS011;57146;48.140;16.304;2024-02-14T06:09:46;4.37;;;0.70;;
69854;SDS011;57146;48.140;16.304;2024-02-14T06:12:13;4.53;;;0.50;;
69854;SDS011;57146;48.140;16.304;2024-02-14T06:14:40;3.78;;;0.40;;
69854;SDS011;57146;48.140;16.304;2024-02-14T06:17:07;5.07;;;0.70;;
69854;SDS011;57146;48.140;16.304;2024-02-14T06:19:34;7.28;;;1.00;;
69854;SDS011;57146;48.140;16.304;2024-02-14T06:22:05;6.60;;;1.20;;
69854;SDS011;57146;48.140;16.304;2024-02-14T06:24:32;7.55;;;1.85;;
69854;SDS011;57146;48.140;16.304;2024-02-14T06:26:59;8.98;;;1.30;;
69854;SDS011;57146;48.140;16.304;2024-02-14T06:29:26;6.30;;;1.60;;
69854;SDS011;57146;48.140;16.304;2024-02-14T06:31:53;8.15;;;1.80;;
69854;SDS011;57146;48.140;16.304;2024-02-14T06:34:20;8.77;;;1.30;;
69854;SDS011;57146;48.140;16.304;2024-02-14T06:36:47;5.70;;;1.50;;
69854;SDS011;57146;48.140;16.304;2024-02-14T06:39:14;8.32;;;1.65;;
69854;SDS011;57146;48.140;16.304;2024-02-14T06:41:41;6.70;;;1.50;;
69854;SDS011;57146;48.140;16.304;2024-02-14T06:44:08;7.80;;;1.42;;
69854;SDS011;57146;48.140;16.304;2024-02-14T06:46:34;6.80;;;1.43;;
69854;SDS011;57146;48.140;16.304;2024-02-14T06:49:02;9.63;;;1.83;;
69854;SDS011;57146;48.140;16.304;2024-02-14T06:51:29;6.45;;;1.50;;
69854;SDS011;57146;48.140;16.304;2024-02-14T06:53:56;7.72;;;1.90;;
69854;SDS011;57146;48.140;16.304;2024-02-14T06:56:23;7.53;;;2.00;;
69854;SDS011;57146;48.140;16.304;2024-02-14T06:58:50;10.83;;;1.70;;
69854;SDS011;57146;48.140;16.304;2024-02-14T07:01:16;7.95;;;2.20;;
69854;SDS011;57146;48.140;16.304;2024-02-14T07:03:43;10.02;;;2.30;;
69854;SDS011;57146;48.140;16.304;2024-02-14T07:06:10;6.80;;;2.10;;
69854;SDS011;57146;48.140;16.304;2024-02-14T07:08:40;7.53;;;2.08;;
69854;SDS011;57146;48.140;16.304;2024-02-14T07:11:07;10.47;;;2.20;;
69854;SDS011;57146;48.140;16.304;2024-02-14T07:13:34;7.82;;;2.10;;
69854;SDS011;57146;48.140;16.304;2024-02-14T07:16:01;9.98;;;2.00;;
69854;SDS011;57146;48.140;16.304;2024-02-14T07:18:27;8.60;;;1.90;;
69854;SDS011;57146;48.140;16.304;2024-02-14T07:20:54;7.63;;;1.73;;
69854;SDS011;57146;48.140;16.304;2024-02-14T07:23:21;6.37;;;1.43;;
69854;SDS011;57146;48.140;16.304;2024-02-14T07:25:48;7.15;;;1.50;;
69854;SDS011;57146;48.140;16.304;2024-02-14T07:28:15;5.88;;;1.60;;
69854;SDS011;57146;48.140;16.304;2024-02-14T07:30:42;8.23;;;1.80;;
69854;SDS011;57146;48.140;16.304;2024-02-14T07:33:10;9.57;;;2.20;;
69854;SDS011;57146;48.140;16.304;2024-02-14T07:35:37;7.27;;;1.87;;
69854;SDS011;57146;48.140;16.304;2024-02-14T07:38:04;7.95;;;2.05;;
69854;SDS011;57146;48.140;16.304;2024-02-14T07:40:31;7.50;;;1.90;;
69854;SDS011;57146;48.140;16.304;2024-02-14T07:42:58;8.73;;;1.92;;
69854;SDS011;57146;48.140;16.304;2024-02-14T07:45:24;5.40;;;1.80;;
69854;SDS011;57146;48.140;16.304;2024-02-14T07:47:52;9.30;;;2.03;;
69854;SDS011;57146;48.140;16.304;2024-02-14T07:50:19;6.47;;;1.80;;
69854;SDS011;57146;48.140;16.304;2024-02-14T07:52:46;9.18;;;2.30;;
69854;SDS011;57146;48.140;16.304;2024-02-14T07:55:13;8.93;;;2.40;;
69854;SDS011;57146;48.140;16.304;2024-02-14T07:57:41;6.40;;;2.03;;
69854;SDS011;57146;48.140;16.304;2024-02-14T08:00:08;7.37;;;2.60;;
69854;SDS011;57146;48.140;16.304;2024-02-14T08:02:36;6.82;;;2.63;;
69854;SDS011;57146;48.140;16.304;2024-02-14T08:05:03;7.32;;;2.35;;
69854;SDS011;57146;48.140;16.304;2024-02-14T08:07:30;9.35;;;2.58;;
69854;SDS011;57146;48.140;16.304;2024-02-14T08:09:57;7.28;;;2.80;;
69854;SDS011;57146;48.140;16.304;2024-02-14T08:12:24;10.43;;;2.70;;
69854;SDS011;57146;48.140;16.304;2024-02-14T08:14:51;8.98;;;2.63;;
69854;SDS011;57146;48.140;16.304;2024-02-14T08:17:18;9.50;;;2.90;;
69854;SDS011;57146;48.140;16.304;2024-02-14T08:19:45;6.53;;;2.80;;
69854;SDS011;57146;48.140;16.304;2024-02-14T08:22:12;8.32;;;2.78;;
69854;SDS011;57146;48.140;16.304;2024-02-14T08:24:39;7.90;;;2.60;;
69854;SDS011;57146;48.140;16.304;2024-02-14T08:27:06;9.02;;;2.42;;
69854;SDS011;57146;48.140;16.304;2024-02-14T08:29:33;7.18;;;2.58;;
69854;SDS011;57146;48.140;16.304;2024-02-14T08:32:00;9.52;;;2.83;;
69854;SDS011;57146;48.140;16.304;2024-02-14T08:34:27;8.68;;;2.40;;
69854;SDS011;57146;48.140;16.304;2024-02-14T08:36:54;6.40;;;2.00;;
69854;SDS011;57146;48.140;16.304;2024-02-14T08:39:21;6.80;;;2.00;;
69854;SDS011;57146;48.140;16.304;2024-02-14T08:41:48;5.93;;;2.20;;
69854;SDS011;57146;48.140;16.304;2024-02-14T08:44:15;8.80;;;2.22;;
69854;SDS011;57146;48.140;16.304;2024-02-14T08:46:42;9.38;;;2.38;;
69854;SDS011;57146;48.140;16.304;2024-02-14T08:49:09;6.30;;;2.00;;
69854;SDS011;57146;48.140;16.304;2024-02-14T08:51:38;8.40;;;2.30;;
69854;SDS011;57146;48.140;16.304;2024-02-14T08:54:05;8.32;;;2.33;;
69854;SDS011;57146;48.140;16.304;2024-02-14T08:56:32;7.68;;;2.05;;
69854;SDS011;57146;48.140;16.304;2024-02-14T08:59:01;8.07;;;2.30;;
69854;SDS011;57146;48.140;16.304;2024-02-14T09:01:28;8.70;;;1.70;;
69854;SDS011;57146;48.140;16.304;2024-02-14T09:03:56;7.47;;;1.75;;
69854;SDS011;57146;48.140;16.304;2024-02-14T09:06:23;7.43;;;1.60;;
69854;SDS011;57146;48.140;16.304;2024-02-14T09:08:51;5.95;;;1.10;;
69854;SDS011;57146;48.140;16.304;2024-02-14T09:11:18;5.80;;;1.20;;
69854;SDS011;57146;48.140;16.304;2024-02-14T09:13:45;7.43;;;1.37;;
69854;SDS011;57146;48.140;16.304;2024-02-14T09:16:13;8.48;;;1.50;;
69854;SDS011;57146;48.140;16.304;2024-02-14T09:18:40;6.80;;;1.70;;
69854;SDS011;57146;48.140;16.304;2024-02-14T09:21:07;6.75;;;1.50;;
69854;SDS011;57146;48.140;16.304;2024-02-14T09:23:34;8.23;;;1.77;;
69854;SDS011;57146;48.140;16.304;2024-02-14T09:26:01;8.53;;;1.90;;
69854;SDS011;57146;48.140;16.304;2024-02-14T09:28:29;7.90;;;1.80;;
69854;SDS011;57146;48.140;16.304;2024-02-14T09:30:56;6.68;;;1.75;;
69854;SDS011;57146;48.140;16.304;2024-02-14T09:33:23;9.40;;;1.65;;
69854;SDS011;57146;48.140;16.304;2024-02-14T09:35:50;7.70;;;1.98;;
69854;SDS011;57146;48.140;16.304;2024-02-14T09:38:17;7.93;;;1.83;;
69854;SDS011;57146;48.140;16.304;2024-02-14T09:40:44;6.05;;;1.20;;
69854;SDS011;57146;48.140;16.304;2024-02-14T09:43:20;8.45;;;1.40;;
69854;SDS011;57146;48.140;16.304;2024-02-14T09:46:01;6.63;;;1.52;;
69854;SDS011;57146;48.140;16.304;2024-02-14T09:48:29;6.38;;;1.77;;
69854;SDS011;57146;48.140;16.304;2024-02-14T09:50:57;10.50;;;2.10;;
69854;SDS011;57146;48.140;16.304;2024-02-14T09:53:25;7.47;;;1.98;;
69854;SDS011;57146;48.140;16.304;2024-02-14T09:55:55;7.57;;;1.80;;
69854;SDS011;57146;48.140;16.304;2024-02-14T09:58:23;6.20;;;1.20;;
69854;SDS011;57146;48.140;16.304;2024-02-14T10:00:50;7.07;;;1.48;;
69854;SDS011;57146;48.140;16.304;2024-02-14T10:03:17;6.70;;;1.40;;
69854;SDS011;57146;48.140;16.304;2024-02-14T10:05:44;8.10;;;1.10;;
69854;SDS011;57146;48.140;16.304;2024-02-14T10:08:11;6.32;;;1.00;;
69854;SDS011;57146;48.140;16.304;2024-02-14T10:10:38;5.18;;;0.85;;
69854;SDS011;57146;48.140;16.304;2024-02-14T10:13:05;6.05;;;0.70;;
69854;SDS011;57146;48.140;16.304;2024-02-14T10:15:33;7.47;;;0.80;;
69854;SDS011;57146;48.140;16.304;2024-02-14T10:18:04;5.68;;;0.70;;
69854;SDS011;57146;48.140;16.304;2024-02-14T10:20:31;5.38;;;0.80;;
69854;SDS011;57146;48.140;16.304;2024-02-14T10:23:02;4.32;;;0.20;;
69854;SDS011;57146;48.140;16.304;2024-02-14T10:25:30;4.95;;;0.20;;
69854;SDS011;57146;48.140;16.304;2024-02-14T10:28:02;3.83;;;0.10;;
69854;SDS011;57146;48.140;16.304;2024-02-14T10:30:30;7.25;;;0.40;;
69854;SDS011;57146;48.140;16.304;2024-02-14T10:32:58;3.42;;;0.20;;
69854;SDS011;57146;48.140;16.304;2024-02-14T10:35:39;5.63;;;0.30;;
69854;SDS011;57146;48.140;16.304;2024-02-14T10:38:07;4.20;;;0.40;;
69854;SDS011;57146;48.140;16.304;2024-02-14T10:40:34;2.57;;;0.27;;
69854;SDS011;57146;48.140;16.304;2024-02-14T10:43:02;4.28;;;0.20;;
69854;SDS011;57146;48.140;16.304;2024-02-14T10:45:29;4.05;;;0.30;;
69854;SDS011;57146;48.140;16.304;2024-02-14T10:47:56;4.05;;;0.20;;
69854;SDS011;57146;48.140;16.304;2024-02-14T10:50:27;3.22;;;0.10;;
69854;SDS011;57146;48.140;16.304;2024-02-14T10:52:59;4.20;;;0.10;;
69854;SDS011;57146;48.140;16.304;2024-02-14T10:55:30;3.38;;;0.20;;
69854;SDS011;57146;48.140;16.304;2024-02-14T10:57:59;5.25;;;0.25;;
69854;SDS011;57146;48.140;16.304;2024-02-14T11:00:27;3.08;;;0.10;;
69854;SDS011;57146;48.140;16.304;2024-02-14T11:02:55;3.50;;;0.10;;
69854;SDS011;57146;48.140;16.304;2024-02-14T11:05:23;4.47;;;0.37;;
69854;SDS011;57146;48.140;16.304;2024-02-14T11:07:50;3.05;;;0.17;;
69854;SDS011;57146;48.140;16.304;2024-02-14T11:10:17;3.25;;;0.10;;
69854;SDS011;57146;48.140;16.304;2024-02-14T11:12:46;3.40;;;0.10;;
69854;SDS011;57146;48.140;16.304;2024-02-14T11:15:18;3.10;;;0.20;;
69854;SDS011;57146;48.140;16.304;2024-02-14T11:17:47;4.60;;;0.17;;
69854;SDS011;57146;48.140;16.304;2024-02-14T11:20:19;3.60;;;0.00;;
69854;SDS011;57146;48.140;16.304;2024-02-14T11:22:58;4.35;;;0.00;;
69854;SDS011;57146;48.140;16.304;2024-02-14T11:25:29;3.85;;;0.10;;
69854;SDS011;57146;48.140;16.304;2024-02-14T12:14:43;1.70;;;0.00;;
69854;SDS011;57146;48.140;16.304;2024-02-14T12:17:11;2.30;;;0.00;;
69854;SDS011;57146;48.140;16.304;2024-02-14T12:19:37;1.55;;;0.00;;
69854;SDS011;57146;48.140;16.304;2024-02-14T12:22:09;1.75;;;0.00;;
69854;SDS011;57146;48.140;16.304;2024-02-14T12:24:36;2.45;;;0.00;;
69854;SDS011;57146;48.140;16.304;2024-02-14T12:27:04;1.67;;;0.00;;
69854;SDS011;57146;48.140;16.304;2024-02-14T12:29:31;1.23;;;0.00;;
69854;SDS011;57146;48.140;16.304;2024-02-14T12:32:05;1.92;;;0.00;;
69854;SDS011;57146;48.140;16.304;2024-02-14T12:34:33;1.65;;;0.00;;
69854;SDS011;57146;48.140;16.304;2024-02-14T12:37:01;1.38;;;0.00;;
69854;SDS011;57146;48.140;16.304;2024-02-14T12:39:28;1.37;;;0.00;;
69854;SDS011;57146;48.140;16.304;2024-02-14T12:41:55;2.25;;;0.00;;
69854;SDS011;57146;48.140;16.304;2024-02-14T12:44:22;2.72;;;0.00;;
69854;SDS011;57146;48.140;16.304;2024-02-14T12:46:49;1.52;;;0.00;;
69854;SDS011;57146;48.140;16.304;2024-02-14T12:49:16;2.88;;;0.00;;
69854;SDS011;57146;48.140;16.304;2024-02-14T12:51:44;1.50;;;0.00;;
69854;SDS011;57146;48.140;16.304;2024-02-14T12:54:11;1.92;;;0.00;;
69854;SDS011;57146;48.140;16.304;2024-02-14T12:56:38;2.67;;;0.10;;
69854;SDS011;57146;48.140;16.304;2024-02-14T12:59:05;2.90;;;0.00;;
69854;SDS011;57146;48.140;16.304;2024-02-14T13:01:32;3.28;;;0.00;;
69854;SDS011;57146;48.140;16.304;2024-02-14T13:03:59;3.10;;;0.00;;
69854;SDS011;57146;48.140;16.304;2024-02-14T13:06:26;2.95;;;0.00;;
69854;SDS011;57146;48.140;16.304;2024-02-14T13:08:53;3.55;;;0.10;;
69854;SDS011;57146;48.140;16.304;2024-02-14T13:11:21;3.55;;;0.10;;
69854;SDS011;57146;48.140;16.304;2024-02-14T13:13:47;4.20;;;0.00;;
69854;SDS011;57146;48.140;16.304;2024-02-14T13:16:14;2.53;;;0.00;;
69854;SDS011;57146;48.140;16.304;2024-02-14T13:18:41;1.75;;;0.00;;
69854;SDS011;57146;48.140;16.304;2024-02-14T13:21:09;2.15;;;0.25;;
69854;SDS011;57146;48.140;16.304;2024-02-14T13:23:36;3.47;;;0.10;;
69854;SDS011;57146;48.140;16.304;2024-02-14T13:26:03;2.72;;;0.00;;
69854;SDS011;57146;48.140;16.304;2024-02-14T13:28:30;1.87;;;0.00;;
69854;SDS011;57146;48.140;16.304;2024-02-14T13:30:57;2.70;;;0.00;;
69854;SDS011;57146;48.140;16.304;2024-02-14T13:33:24;3.83;;;0.10;;
69854;SDS011;57146;48.140;16.304;2024-02-14T13:35:52;2.63;;;0.00;;
69854;SDS011;57146;48.140;16.304;2024-02-14T13:38:19;2.38;;;0.00;;
69854;SDS011;57146;48.140;16.304;2024-02-14T13:40:46;1.30;;;0.00;;
69854;SDS011;57146;48.140;16.304;2024-02-14T13:43:13;1.70;;;0.00;;
69854;SDS011;57146;48.140;16.304;2024-02-14T13:45:44;1.42;;;0.00;;
69854;SDS011;57146;48.140;16.304;2024-02-14T13:48:12;1.35;;;0.00;;
69854;SDS011;57146;48.140;16.304;2024-02-14T13:50:39;3.67;;;0.00;;
69854;SDS011;57146;48.140;16.304;2024-02-14T13:53:07;2.47;;;0.00;;
69854;SDS011;57146;48.140;16.304;2024-02-14T13:55:34;3.28;;;0.10;;
69854;SDS011;57146;48.140;16.304;2024-02-14T13:58:01;1.60;;;0.00;;
69854;SDS011;57146;48.140;16.304;2024-02-14T14:00:28;1.92;;;0.10;;
69854;SDS011;57146;48.140;16.304;2024-02-14T14:02:55;1.08;;;0.00;;
69854;SDS011;57146;48.140;16.304;2024-02-14T14:05:22;3.60;;;0.00;;
69854;SDS011;57146;48.140;16.304;2024-02-14T14:07:49;2.75;;;0.00;;
69854;SDS011;57146;48.140;16.304;2024-02-14T14:10:25;1.67;;;0.00;;
69854;SDS011;57146;48.140;16.304;2024-02-14T14:12:53;3.00;;;0.00;;
69854;SDS011;57146;48.140;16.304;2024-02-14T14:15:20;2.20;;;0.00;;
69854;SDS011;57146;48.140;16.304;2024-02-14T14:17:47;2.43;;;0.00;;
69854;SDS011;57146;48.140;16.304;2024-02-14T14:20:14;2.22;;;0.00;;
69854;SDS011;57146;48.140;16.304;2024-02-14T14:22:42;5.22;;;0.10;;
69854;SDS011;57146;48.140;16.304;2024-02-14T14:25:08;3.20;;;0.05;;
69854;SDS011;57146;48.140;16.304;2024-02-14T14:27:36;3.60;;;0.00;;
69854;SDS011;57146;48.140;16.304;2024-02-14T14:30:03;2.70;;;0.00;;
69854;SDS011;57146;48.140;16.304;2024-02-14T14:32:30;1.95;;;0.00;;
69854;SDS011;57146;48.140;16.304;2024-02-14T14:34:57;2.53;;;0.30;;
69854;SDS011;57146;48.140;16.304;2024-02-14T14:37:24;1.98;;;0.00;;
69854;SDS011;57146;48.140;16.304;2024-02-14T14:39:51;4.18;;;0.20;;
69854;SDS011;57146;48.140;16.304;2024-02-14T14:42:18;3.57;;;0.00;;
69854;SDS011;57146;48.140;16.304;2024-02-14T14:44:45;2.10;;;0.00;;
69854;SDS011;57146;48.140;16.304;2024-02-14T14:47:12;3.03;;;0.00;;
69854;SDS011;57146;48.140;16.304;2024-02-14T14:49:39;2.10;;;0.00;;
69854;SDS011;57146;48.140;16.304;2024-02-14T14:52:07;3.47;;;0.15;;
69854;SDS011;57146;48.140;16.304;2024-02-14T14:54:34;2.70;;;0.00;;
69854;SDS011;57146;48.140;16.304;2024-02-14T14:57:01;2.45;;;0.03;;
69854;SDS011;57146;48.140;16.304;2024-02-14T14:59:29;2.47;;;0.00;;
69854;SDS011;57146;48.140;16.304;2024-02-14T15:01:56;2.70;;;0.10;;
69854;SDS011;57146;48.140;16.304;2024-02-14T15:04:23;2.83;;;0.00;;
69854;SDS011;57146;48.140;16.304;2024-02-14T15:06:50;1.77;;;0.00;;
69854;SDS011;57146;48.140;16.304;2024-02-14T15:09:17;2.17;;;0.10;;
69854;SDS011;57146;48.140;16.304;2024-02-14T15:11:44;3.25;;;0.00;;
69854;SDS011;57146;48.140;16.304;2024-02-14T15:14:11;2.63;;;0.00;;
69854;SDS011;57146;48.140;16.304;2024-02-14T15:16:40;5.45;;;0.00;;
69854;SDS011;57146;48.140;16.304;2024-02-14T15:19:07;3.13;;;0.03;;
69854;SDS011;57146;48.140;16.304;2024-02-14T15:21:34;2.45;;;0.03;;